Time;durP1;ratioP1;P1;durP2;ratioP2;P2;SDS_P1;SDS_P2;PMS_P1;PMS_P2;Temp;Humidity;BMP_temperature;BMP_pressure;BME280_temperature;BME280_humidity;BME280_pressure;Samples;Min_cycle;Max_cycle;Signal;HPM_P1;HPM_P2
2023/03/04 00:00:03;;;;;;;18.15;12.00;;;4.10;99.90;;;;;;5095042;28;20429;-63
2023/03/04 00:02:30;;;;;;;19.42;12.38;;;4.10;99.90;;;;;;5095030;28;20437;-63
2023/03/04 00:04:59;;;;;;;18.20;12.27;;;4.00;99.90;;;;;;5094714;28;20418;-63
2023/03/04 00:07:26;;;;;;;19.25;12.13;;;4.00;99.90;;;;;;5094927;28;20432;-63
2023/03/04 00:09:53;;;;;;;20.45;12.85;;;4.00;99.90;;;;;;5094638;28;20417;-63
2023/03/04 00:12:20;;;;;;;17.93;12.13;;;4.00;99.90;;;;;;5094705;28;20537;-63
2023/03/04 00:14:47;;;;;;;15.43;11.35;;;4.00;99.90;;;;;;5093447;28;20814;-63
2023/03/04 00:17:14;;;;;;;15.20;10.35;;;4.10;99.90;;;;;;5095172;28;20443;-63
2023/03/04 00:19:42;;;;;;;16.83;11.38;;;4.10;99.90;;;;;;5094385;28;20846;-63
2023/03/04 00:22:10;;;;;;;18.20;11.48;;;4.10;99.90;;;;;;5094133;28;20733;-62
2023/03/04 00:24:37;;;;;;;16.58;10.98;;;4.10;99.90;;;;;;5093448;28;20418;-62
2023/03/04 00:27:04;;;;;;;18.13;11.40;;;4.00;99.90;;;;;;5093448;28;20725;-63
2023/03/04 00:29:32;;;;;;;16.63;11.57;;;4.00;99.90;;;;;;5093301;28;20421;-63
2023/03/04 00:31:59;;;;;;;17.98;11.48;;;3.90;99.90;;;;;;5093149;28;20422;-63
2023/03/04 00:34:26;;;;;;;17.00;10.65;;;3.80;99.90;;;;;;5093167;28;20412;-62
2023/03/04 00:36:53;;;;;;;17.85;12.07;;;3.80;99.90;;;;;;5092903;28;20422;-62
2023/03/04 00:39:22;;;;;;;16.80;11.40;;;3.70;99.90;;;;;;5093356;28;20421;-63
2023/03/04 00:41:49;;;;;;;18.50;12.00;;;3.70;99.90;;;;;;5092580;28;20429;-64
2023/03/04 00:44:16;;;;;;;18.85;11.73;;;3.70;99.90;;;;;;5092974;28;20428;-63
2023/03/04 00:46:43;;;;;;;17.02;10.70;;;3.60;99.90;;;;;;5092362;28;20424;-63
2023/03/04 00:49:10;;;;;;;20.50;12.90;;;3.70;99.90;;;;;;5092782;28;20421;-63
2023/03/04 00:51:37;;;;;;;21.17;12.05;;;3.70;99.90;;;;;;5093195;28;20425;-63
2023/03/04 00:54:04;;;;;;;19.00;12.23;;;3.60;99.90;;;;;;5092745;28;20833;-63
2023/03/04 00:56:33;;;;;;;16.73;11.43;;;3.60;99.90;;;;;;5092171;28;20429;-63
2023/03/04 00:59:00;;;;;;;19.95;11.43;;;3.60;99.90;;;;;;5093090;28;20432;-61
2023/03/04 01:01:27;;;;;;;16.98;10.23;;;3.70;99.90;;;;;;5093571;28;20508;-62
2023/03/04 01:03:54;;;;;;;19.23;11.20;;;3.70;99.90;;;;;;5093489;28;20584;-62
2023/03/04 01:06:21;;;;;;;19.40;11.43;;;3.70;99.90;;;;;;5093725;28;20432;-63
2023/03/04 01:08:48;;;;;;;17.47;11.30;;;3.60;99.90;;;;;;5094215;28;20909;-62
2023/03/04 01:11:16;;;;;;;17.95;11.88;;;3.60;99.90;;;;;;5097732;28;20429;-62
2023/03/04 01:13:44;;;;;;;19.83;11.18;;;3.50;99.90;;;;;;5097798;28;20428;-62
2023/03/04 01:16:11;;;;;;;18.00;11.50;;;3.50;99.90;;;;;;5097386;28;20514;-62
2023/03/04 01:18:39;;;;;;;17.90;10.10;;;3.60;99.90;;;;;;5095996;28;20414;-62
2023/03/04 01:21:06;;;;;;;18.00;11.27;;;3.60;99.90;;;;;;5095661;28;20457;-62
2023/03/04 01:23:34;;;;;;;15.27;10.50;;;3.70;99.90;;;;;;5096733;28;20849;-62
2023/03/04 01:26:01;;;;;;;16.33;9.95;;;3.70;99.90;;;;;;5097696;28;20433;-62
2023/03/04 01:28:28;;;;;;;14.32;8.73;;;3.70;99.90;;;;;;5097478;28;20422;-61
2023/03/04 01:30:56;;;;;;;16.05;10.20;;;3.70;99.90;;;;;;5096823;28;20430;-62
2023/03/04 01:33:23;;;;;;;17.58;11.13;;;3.70;99.90;;;;;;5095852;28;20425;-62
2023/03/04 01:35:50;;;;;;;16.00;10.40;;;3.50;99.90;;;;;;5097100;28;20429;-62
2023/03/04 01:38:18;;;;;;;16.42;10.48;;;3.40;99.90;;;;;;5096900;28;20424;-62
2023/03/04 01:40:45;;;;;;;17.30;10.53;;;3.50;99.90;;;;;;5097565;28;20422;-63
2023/03/04 01:43:20;;;;;;;17.30;10.15;;;3.30;99.90;;;;;;5096411;28;20426;-63
2023/03/04 01:45:49;;;;;;;17.30;11.55;;;3.20;99.90;;;;;;5097286;28;20765;-61
2023/03/04 01:48:20;;;;;;;18.30;11.97;;;3.10;99.90;;;;;;5097673;28;20745;-62
2023/03/04 01:50:47;;;;;;;16.75;11.07;;;3.00;99.90;;;;;;5097311;28;20426;-62
2023/03/04 01:53:20;;;;;;;19.65;12.02;;;3.00;99.90;;;;;;5096637;28;20518;-62
2023/03/04 01:55:47;;;;;;;19.08;11.57;;;3.00;99.90;;;;;;5096399;28;20433;-62
2023/03/04 01:58:14;;;;;;;15.23;9.98;;;3.10;99.90;;;;;;5096414;28;20416;-63
2023/03/04 02:00:42;;;;;;;20.90;12.20;;;3.10;99.90;;;;;;5096526;28;20418;-62
2023/03/04 02:03:11;;;;;;;16.85;10.75;;;3.00;99.90;;;;;;5096895;28;20845;-63
2023/03/04 02:05:43;;;;;;;16.70;10.13;;;2.90;99.90;;;;;;5096797;28;20860;-61
2023/03/04 02:08:10;;;;;;;15.95;10.30;;;2.90;99.90;;;;;;5097371;28;20418;-63
2023/03/04 02:10:38;;;;;;;18.83;10.60;;;3.00;99.90;;;;;;5097348;28;20709;-61
2023/03/04 02:13:06;;;;;;;17.63;10.20;;;3.10;99.90;;;;;;5096897;28;20414;-62
2023/03/04 02:15:33;;;;;;;15.57;9.70;;;3.10;99.90;;;;;;5096300;28;20442;-61
2023/03/04 02:18:01;;;;;;;15.45;9.60;;;3.10;99.90;;;;;;5096835;28;20425;-61
2023/03/04 02:20:43;;;;;;;14.13;9.13;;;3.10;99.90;;;;;;5095547;28;20842;-62
2023/03/04 02:23:17;;;;;;;13.53;9.00;;;3.00;99.90;;;;;;5096773;28;20430;-62
2023/03/04 02:25:47;;;;;;;14.65;9.50;;;3.10;99.90;;;;;;5095758;28;20848;-61
2023/03/04 02:28:16;;;;;;;17.30;10.70;;;3.20;99.90;;;;;;5097067;28;20822;-62
2023/03/04 02:30:43;;;;;;;16.03;9.83;;;3.00;99.90;;;;;;5096497;28;20414;-62
2023/03/04 02:33:16;;;;;;;16.52;10.07;;;2.70;99.90;;;;;;5097035;28;20726;-61
2023/03/04 02:35:44;;;;;;;15.55;11.20;;;2.50;99.90;;;;;;5096351;28;20792;-61
2023/03/04 02:38:11;;;;;;;16.77;10.90;;;2.50;99.90;;;;;;5096590;28;20725;-62
2023/03/04 02:40:41;;;;;;;19.60;10.95;;;2.50;99.90;;;;;;5095950;28;20424;-61
2023/03/04 02:43:11;;;;;;;19.13;10.70;;;2.40;99.90;;;;;;5096756;28;20430;-62
2023/03/04 02:45:43;;;;;;;16.50;10.35;;;2.30;99.90;;;;;;5096327;28;20425;-62
2023/03/04 02:48:11;;;;;;;17.58;10.40;;;2.30;99.90;;;;;;5095940;28;20829;-62
2023/03/04 02:50:42;;;;;;;19.27;10.60;;;2.40;99.90;;;;;;5095663;28;20420;-62
2023/03/04 02:53:10;;;;;;;12.63;9.27;;;2.50;99.90;;;;;;5096282;28;20445;-62
2023/03/04 02:55:37;;;;;;;14.02;9.30;;;2.60;99.90;;;;;;5096402;28;20706;-62
2023/03/04 02:58:04;;;;;;;13.88;8.88;;;2.70;99.90;;;;;;5096205;28;20423;-62
2023/03/04 03:00:31;;;;;;;14.27;7.80;;;2.60;99.90;;;;;;5095923;28;20414;-63
2023/03/04 03:03:00;;;;;;;12.68;8.45;;;2.70;99.90;;;;;;5095652;28;20430;-62
2023/03/04 03:05:30;;;;;;;13.87;8.77;;;2.70;99.90;;;;;;5095792;28;20422;-62
2023/03/04 03:07:57;;;;;;;15.27;10.65;;;2.70;99.90;;;;;;5096198;28;20446;-63
2023/03/04 03:10:24;;;;;;;12.10;8.40;;;2.70;99.90;;;;;;5095996;28;20410;-65
2023/03/04 03:12:52;;;;;;;13.32;8.73;;;2.70;99.90;;;;;;5095636;28;20421;-62
2023/03/04 03:15:19;;;;;;;14.33;9.00;;;2.50;99.90;;;;;;5095254;28;20422;-62
2023/03/04 03:17:46;;;;;;;15.68;9.27;;;2.40;99.90;;;;;;5095522;28;20447;-62
2023/03/04 03:20:16;;;;;;;15.40;9.40;;;2.40;99.90;;;;;;5095634;28;20464;-62
2023/03/04 03:22:44;;;;;;;14.07;8.80;;;2.30;99.90;;;;;;5096031;28;20593;-61
2023/03/04 03:25:12;;;;;;;12.70;7.90;;;2.30;99.90;;;;;;5094694;28;20428;-61
2023/03/04 03:27:40;;;;;;;14.45;9.00;;;2.30;99.90;;;;;;5095674;28;20426;-61
2023/03/04 03:30:10;;;;;;;14.75;8.48;;;2.40;99.90;;;;;;5095644;28;20826;-62
2023/03/04 03:32:37;;;;;;;12.15;7.40;;;2.60;99.90;;;;;;5095179;28;20468;-62
2023/03/04 03:35:05;;;;;;;12.20;7.93;;;2.90;99.90;;;;;;5095837;28;20520;-62
2023/03/04 03:37:33;;;;;;;13.35;8.77;;;2.90;99.90;;;;;;5095459;28;20429;-62
2023/03/04 03:40:00;;;;;;;15.27;7.90;;;2.80;99.90;;;;;;5095964;28;20418;-62
2023/03/04 03:42:27;;;;;;;13.77;8.80;;;2.70;99.90;;;;;;5095461;28;20434;-62
2023/03/04 03:44:55;;;;;;;13.67;8.57;;;2.60;99.90;;;;;;5095531;28;20686;-62
2023/03/04 03:47:23;;;;;;;14.38;7.97;;;2.40;99.90;;;;;;5095956;28;20430;-61
2023/03/04 03:49:50;;;;;;;13.20;7.90;;;2.40;99.90;;;;;;5095166;28;20422;-61
2023/03/04 03:52:17;;;;;;;12.17;7.60;;;2.40;99.90;;;;;;5095680;28;20425;-62
2023/03/04 03:54:46;;;;;;;13.45;8.55;;;2.30;99.90;;;;;;5095158;28;20417;-62
2023/03/04 03:57:13;;;;;;;13.50;7.63;;;2.30;99.90;;;;;;5095482;28;20765;-62
2023/03/04 03:59:40;;;;;;;10.77;7.90;;;2.20;99.90;;;;;;5095201;28;20733;-62
2023/03/04 04:02:07;;;;;;;15.07;8.43;;;2.00;99.90;;;;;;5094873;28;20425;-61
2023/03/04 04:04:34;;;;;;;12.18;8.68;;;2.00;99.90;;;;;;5094692;28;20425;-64
2023/03/04 04:07:01;;;;;;;14.13;9.10;;;1.90;99.90;;;;;;5094949;28;20426;-61
2023/03/04 04:09:28;;;;;;;16.58;8.98;;;1.60;99.90;;;;;;5094751;28;20869;-61
2023/03/04 04:11:57;;;;;;;16.57;9.40;;;1.50;99.90;;;;;;5094817;28;20426;-61
2023/03/04 04:14:24;;;;;;;14.93;9.48;;;1.40;99.90;;;;;;5094415;28;20836;-61
2023/03/04 04:16:51;;;;;;;14.93;8.55;;;1.50;99.90;;;;;;5093806;28;20851;-61
2023/03/04 04:19:19;;;;;;;14.77;9.20;;;1.50;99.90;;;;;;5094799;28;20437;-61
2023/03/04 04:21:47;;;;;;;16.75;9.43;;;1.50;99.90;;;;;;5094413;28;20436;-61
2023/03/04 04:24:14;;;;;;;12.65;8.13;;;1.50;99.90;;;;;;5094734;28;20884;-61
2023/03/04 04:26:42;;;;;;;16.13;8.63;;;1.60;99.90;;;;;;5094546;28;20861;-61
2023/03/04 04:29:14;;;;;;;11.82;7.53;;;1.60;99.90;;;;;;5094877;28;20497;-61
2023/03/04 04:31:41;;;;;;;12.60;8.18;;;1.70;99.90;;;;;;5095417;28;20430;-62
2023/03/04 04:34:09;;;;;;;12.57;6.93;;;1.90;99.90;;;;;;5095505;28;20726;-61
2023/03/04 04:36:36;;;;;;;11.77;7.40;;;1.90;99.90;;;;;;5094305;28;20429;-62
2023/03/04 04:39:03;;;;;;;13.25;8.93;;;1.80;99.90;;;;;;5094642;28;20417;-62
2023/03/04 04:41:36;;;;;;;15.13;8.50;;;1.90;99.90;;;;;;5095224;28;20418;-62
2023/03/04 04:44:03;;;;;;;13.15;7.82;;;1.90;99.90;;;;;;5097663;28;20442;-62
2023/03/04 04:46:32;;;;;;;14.63;8.45;;;1.90;99.90;;;;;;5098762;28;20876;-62
2023/03/04 04:48:59;;;;;;;14.05;8.40;;;1.90;99.90;;;;;;5098819;28;20426;-62
2023/03/04 04:51:27;;;;;;;13.63;8.30;;;1.90;99.90;;;;;;5098668;28;20445;-62
2023/03/04 04:53:54;;;;;;;12.27;7.60;;;1.90;99.90;;;;;;5097489;28;21007;-62
2023/03/04 04:56:25;;;;;;;14.20;7.33;;;1.90;99.90;;;;;;5098220;28;20880;-62
2023/03/04 04:58:52;;;;;;;13.13;7.88;;;2.00;99.90;;;;;;5098175;28;20728;-61
2023/03/04 05:01:20;;;;;;;10.70;7.43;;;2.00;99.90;;;;;;5098267;28;20432;-62
2023/03/04 05:03:52;;;;;;;13.57;7.68;;;2.10;99.90;;;;;;5098019;28;20429;-62
2023/03/04 05:06:20;;;;;;;14.15;7.70;;;2.30;99.90;;;;;;5098067;28;20432;-61
2023/03/04 05:08:47;;;;;;;12.15;7.10;;;2.30;99.90;;;;;;5098422;28;20422;-61
2023/03/04 05:11:14;;;;;;;15.18;7.85;;;2.20;99.90;;;;;;5097706;28;20422;-62
2023/03/04 05:13:41;;;;;;;12.75;8.10;;;2.20;99.90;;;;;;5097820;28;20497;-61
2023/03/04 05:16:09;;;;;;;15.48;9.10;;;2.00;99.90;;;;;;5098053;28;20834;-61
2023/03/04 05:18:36;;;;;;;15.20;8.80;;;1.70;99.90;;;;;;5097541;28;20422;-61
2023/03/04 05:21:05;;;;;;;12.88;8.05;;;1.60;99.90;;;;;;5097339;28;20781;-61
2023/03/04 05:23:34;;;;;;;13.07;7.90;;;1.30;99.90;;;;;;5098100;28;20864;-61
2023/03/04 05:26:02;;;;;;;14.85;8.20;;;1.20;99.90;;;;;;5098042;28;20425;-61
2023/03/04 05:28:29;;;;;;;13.05;8.75;;;1.20;99.90;;;;;;5097066;28;20405;-61
2023/03/04 05:30:56;;;;;;;12.63;7.55;;;1.40;99.90;;;;;;5097745;28;20430;-61
2023/03/04 05:33:24;;;;;;;14.75;8.60;;;1.70;99.90;;;;;;5097748;28;20410;-61
2023/03/04 05:35:51;;;;;;;11.95;8.10;;;1.70;99.90;;;;;;5097309;28;20430;-61
2023/03/04 05:38:20;;;;;;;15.80;9.43;;;1.70;99.90;;;;;;5094980;28;20410;-62
2023/03/04 05:40:48;;;;;;;14.57;8.77;;;1.60;99.90;;;;;;5096707;28;20444;-61
2023/03/04 05:43:16;;;;;;;15.60;8.82;;;1.40;99.90;;;;;;5096186;28;20465;-60
2023/03/04 05:45:43;;;;;;;12.75;7.70;;;1.40;99.90;;;;;;5095925;28;20414;-61
2023/03/04 05:48:10;;;;;;;14.80;8.13;;;1.60;99.90;;;;;;5095473;28;20816;-62
2023/03/04 05:50:37;;;;;;;12.27;8.18;;;1.70;99.90;;;;;;5095761;28;20421;-61
2023/03/04 05:53:04;;;;;;;15.18;8.10;;;1.70;99.90;;;;;;5097281;28;20830;-61
2023/03/04 05:55:33;;;;;;;11.20;7.10;;;1.70;99.90;;;;;;5096285;28;20497;-61
2023/03/04 05:58:00;;;;;;;14.23;7.90;;;1.80;99.90;;;;;;5096906;28;20421;-62
2023/03/04 06:00:27;;;;;;;12.10;7.05;;;1.80;99.90;;;;;;5097034;28;20425;-60
2023/03/04 06:02:54;;;;;;;15.33;7.60;;;1.70;99.90;;;;;;5096268;28;20428;-62
2023/03/04 06:05:22;;;;;;;12.65;6.82;;;1.70;99.90;;;;;;5097132;28;20460;-62
2023/03/04 06:07:49;;;;;;;13.65;8.20;;;1.60;99.90;;;;;;5096277;28;20737;-62
2023/03/04 06:10:17;;;;;;;14.07;7.80;;;1.60;99.90;;;;;;5095026;28;20418;-62
2023/03/04 06:12:46;;;;;;;15.02;7.55;;;1.70;99.90;;;;;;5095754;28;20425;-62
2023/03/04 06:15:14;;;;;;;12.23;6.70;;;1.80;99.90;;;;;;5095351;28;20830;-63
2023/03/04 06:17:43;;;;;;;12.63;7.57;;;1.80;99.90;;;;;;5096500;28;20425;-64
2023/03/04 06:20:12;;;;;;;15.20;7.75;;;1.80;99.90;;;;;;5096651;28;20425;-62
2023/03/04 06:22:39;;;;;;;15.90;8.63;;;1.40;99.90;;;;;;5096870;28;20876;-62
2023/03/04 06:25:07;;;;;;;14.10;8.43;;;1.40;99.90;;;;;;5096523;28;20437;-62
2023/03/04 06:27:34;;;;;;;15.13;8.20;;;1.40;99.90;;;;;;5096695;28;20432;-62
2023/03/04 06:30:03;;;;;;;14.80;7.80;;;1.30;99.90;;;;;;5096072;28;20410;-62
2023/03/04 06:32:30;;;;;;;14.68;9.00;;;1.30;99.90;;;;;;5095713;28;20430;-62
2023/03/04 06:34:57;;;;;;;14.88;8.88;;;1.30;99.90;;;;;;5095766;28;20421;-62
2023/03/04 06:37:24;;;;;;;14.77;8.75;;;1.20;99.90;;;;;;5096597;28;20425;-62
2023/03/04 06:39:51;;;;;;;18.25;8.80;;;1.30;99.90;;;;;;5096453;28;20464;-62
2023/03/04 06:42:19;;;;;;;16.45;8.30;;;1.40;99.90;;;;;;5096384;28;20430;-63
2023/03/04 06:44:46;;;;;;;15.85;8.40;;;1.50;99.90;;;;;;5096604;28;20841;-63
2023/03/04 06:47:14;;;;;;;15.15;8.27;;;1.60;99.90;;;;;;5096535;28;20426;-61
2023/03/04 06:49:42;;;;;;;14.95;8.82;;;1.50;99.90;;;;;;5096118;28;20417;-63
2023/03/04 06:52:10;;;;;;;15.30;8.57;;;1.30;99.90;;;;;;5096036;28;20842;-62
2023/03/04 06:54:38;;;;;;;14.85;8.95;;;1.40;99.90;;;;;;5093080;28;20925;-62
2023/03/04 06:57:05;;;;;;;15.43;8.00;;;1.40;99.90;;;;;;5094526;28;20425;-63
2023/03/04 06:59:32;;;;;;;15.13;8.30;;;1.40;99.90;;;;;;5093889;28;20445;-63
2023/03/04 07:02:00;;;;;;;16.07;7.80;;;1.70;99.90;;;;;;5094962;28;20541;-63
2023/03/04 07:04:28;;;;;;;15.57;9.60;;;1.80;99.90;;;;;;5087521;28;20503;-61
2023/03/04 07:06:55;;;;;;;13.57;7.65;;;1.60;99.90;;;;;;5082654;28;20451;-60
2023/03/04 07:09:23;;;;;;;10.48;6.80;;;1.60;99.90;;;;;;5088488;28;20833;-60
2023/03/04 07:11:50;;;;;;;15.50;7.57;;;2.10;99.90;;;;;;5090096;28;20532;-59
2023/03/04 07:14:17;;;;;;;14.60;7.97;;;2.50;99.90;;;;;;5088366;28;20441;-60
2023/03/04 07:16:44;;;;;;;14.70;7.78;;;2.80;99.90;;;;;;5089629;28;20455;-60
2023/03/04 07:19:11;;;;;;;12.95;6.90;;;3.10;99.90;;;;;;5077384;28;20423;-60
2023/03/04 07:21:40;;;;;;;14.18;6.80;;;3.40;99.90;;;;;;5094825;28;20422;-60
2023/03/04 07:24:07;;;;;;;14.10;8.30;;;3.40;99.90;;;;;;5088113;28;20430;-60
2023/03/04 07:26:36;;;;;;;13.10;7.40;;;3.40;99.90;;;;;;5095428;28;20426;-61
2023/03/04 07:29:04;;;;;;;14.70;7.70;;;3.30;99.90;;;;;;5094434;28;20768;-60
2023/03/04 07:31:32;;;;;;;13.73;6.82;;;3.10;99.90;;;;;;5093576;28;20514;-60
2023/03/04 07:34:01;;;;;;;12.65;7.68;;;3.00;99.90;;;;;;5075201;28;20510;-60
2023/03/04 07:36:29;;;;;;;16.00;8.90;;;2.90;99.90;;;;;;5073821;28;20419;-59
2023/03/04 07:38:58;;;;;;;11.73;7.07;;;2.60;99.90;;;;;;5083564;28;20501;-60
2023/03/04 07:41:27;;;;;;;11.98;7.00;;;2.70;99.90;;;;;;5095405;28;20791;-62
2023/03/04 07:43:56;;;;;;;12.05;7.40;;;2.70;99.90;;;;;;5095330;28;20426;-60
2023/03/04 07:46:23;;;;;;;13.63;7.10;;;2.70;99.90;;;;;;5086968;28;20436;-60
2023/03/04 07:48:50;;;;;;;11.90;6.07;;;2.60;99.90;;;;;;5094274;28;20426;-60
2023/03/04 07:51:19;;;;;;;10.60;6.43;;;2.60;99.90;;;;;;5094398;28;20859;-60
2023/03/04 07:53:48;;;;;;;9.68;5.22;;;2.60;99.90;;;;;;5094178;28;20410;-60
2023/03/04 07:56:18;;;;;;;10.50;5.22;;;2.70;99.90;;;;;;5095649;28;20429;-61
2023/03/04 07:58:46;;;;;;;12.30;5.88;;;2.80;99.90;;;;;;5086694;28;20432;-61
2023/03/04 08:01:15;;;;;;;10.10;5.75;;;2.90;99.90;;;;;;5084613;28;20422;-63
2023/03/04 08:03:42;;;;;;;11.30;5.80;;;2.70;99.90;;;;;;5093650;28;20440;-60
2023/03/04 08:06:12;;;;;;;12.30;6.30;;;2.60;99.90;;;;;;5093461;28;20445;-60
2023/03/04 08:08:40;;;;;;;12.38;6.40;;;2.60;99.90;;;;;;5085004;28;20418;-61
2023/03/04 08:11:09;;;;;;;12.90;6.60;;;2.60;99.90;;;;;;5094572;28;20429;-61
2023/03/04 08:13:38;;;;;;;11.05;6.60;;;2.70;99.90;;;;;;5094579;28;20450;-61
2023/03/04 08:16:06;;;;;;;14.60;6.93;;;2.50;99.90;;;;;;5095405;28;20845;-64
2023/03/04 08:18:33;;;;;;;10.02;4.90;;;2.40;99.90;;;;;;5096901;28;20418;-61
2023/03/04 08:21:01;;;;;;;11.20;6.35;;;2.80;99.90;;;;;;5098747;28;20426;-60
2023/03/04 08:23:28;;;;;;;10.25;5.75;;;3.20;99.90;;;;;;5098996;28;20829;-61
2023/03/04 08:25:56;;;;;;;11.80;5.65;;;3.20;99.90;;;;;;5098623;28;20465;-62
2023/03/04 08:28:23;;;;;;;12.00;5.97;;;3.50;99.90;;;;;;5098619;28;20431;-61
2023/03/04 08:30:55;;;;;;;10.23;5.68;;;3.60;99.90;;;;;;5098172;28;20488;-62
2023/03/04 08:33:22;;;;;;;12.98;6.70;;;3.80;99.90;;;;;;5098066;28;20426;-61
2023/03/04 08:35:50;;;;;;;11.80;6.65;;;3.80;99.90;;;;;;5099623;28;20784;-60
2023/03/04 08:38:17;;;;;;;10.50;4.93;;;3.60;99.90;;;;;;5098340;28;20794;-62
2023/03/04 08:40:44;;;;;;;13.38;6.93;;;3.60;99.90;;;;;;5095754;28;20422;-62
2023/03/04 08:43:11;;;;;;;11.43;6.28;;;3.90;99.90;;;;;;5095782;28;20418;-61
2023/03/04 08:45:38;;;;;;;10.90;6.10;;;4.00;99.90;;;;;;5091915;28;20447;-61
2023/03/04 08:48:07;;;;;;;11.48;6.63;;;3.70;99.90;;;;;;5080204;28;20704;-61
2023/03/04 08:50:35;;;;;;;12.60;6.17;;;3.80;99.90;;;;;;5088168;28;20509;-60
2023/03/04 08:53:02;;;;;;;12.27;6.22;;;3.60;99.90;;;;;;5095951;28;20414;-61
2023/03/04 08:55:30;;;;;;;14.55;7.25;;;3.60;99.90;;;;;;5094470;28;20430;-60
2023/03/04 08:57:57;;;;;;;11.82;7.10;;;3.50;99.90;;;;;;5092349;28;20743;-60
2023/03/04 09:00:24;;;;;;;13.77;7.10;;;3.50;99.90;;;;;;5097680;28;20424;-60
2023/03/04 09:02:51;;;;;;;16.30;7.72;;;3.10;99.90;;;;;;5093440;28;20440;-59
2023/03/04 09:05:19;;;;;;;14.25;6.60;;;2.90;99.90;;;;;;5087823;28;20556;-60
2023/03/04 09:07:47;;;;;;;14.45;7.97;;;2.80;99.90;;;;;;5093810;28;20444;-59
2023/03/04 09:10:14;;;;;;;14.82;7.38;;;2.80;99.90;;;;;;5096888;28;20458;-60
2023/03/04 09:12:41;;;;;;;14.18;7.18;;;2.90;99.90;;;;;;5094022;28;20481;-60
2023/03/04 09:15:09;;;;;;;13.00;6.83;;;2.90;99.90;;;;;;5088333;28;20420;-60
2023/03/04 09:17:37;;;;;;;14.90;7.70;;;3.00;99.90;;;;;;5091003;28;20437;-60
2023/03/04 09:20:05;;;;;;;12.50;6.70;;;3.20;99.90;;;;;;5095936;28;20429;-60
2023/03/04 09:22:34;;;;;;;13.50;6.57;;;3.40;99.90;;;;;;5094149;28;20449;-60
2023/03/04 09:25:01;;;;;;;10.00;6.50;;;3.50;99.90;;;;;;5096453;28;20426;-60
2023/03/04 09:27:29;;;;;;;9.88;5.60;;;3.50;99.90;;;;;;5094510;28;20444;-61
2023/03/04 09:29:56;;;;;;;15.15;8.40;;;3.50;99.90;;;;;;5092974;28;20430;-56
2023/03/04 09:32:23;;;;;;;10.75;5.70;;;3.50;99.90;;;;;;5096158;28;20466;-54
2023/03/04 09:34:50;;;;;;;13.07;6.60;;;3.40;99.90;;;;;;5092859;28;20845;-55
2023/03/04 09:37:17;;;;;;;11.50;6.17;;;3.20;99.90;;;;;;5092311;28;20809;-52
2023/03/04 09:39:48;;;;;;;13.05;6.85;;;3.30;99.90;;;;;;5092974;28;20853;-54
2023/03/04 09:42:27;;;;;;;12.13;5.97;;;3.30;99.90;;;;;;5091902;28;20434;-55
2023/03/04 09:44:54;;;;;;;12.23;7.47;;;3.50;99.90;;;;;;5091130;28;20737;-53
2023/03/04 09:47:23;;;;;;;11.50;6.22;;;3.70;99.90;;;;;;5093646;28;20873;-53
2023/03/04 09:49:56;;;;;;;12.40;6.80;;;3.70;99.90;;;;;;5095939;28;20418;-54
2023/03/04 09:52:37;;;;;;;11.63;6.60;;;3.70;99.90;;;;;;5092267;28;20923;-56
2023/03/04 09:55:17;;;;;;;11.70;7.40;;;3.70;99.90;;;;;;5093534;28;20429;-51
2023/03/04 09:57:50;;;;;;;11.90;7.97;;;3.90;99.90;;;;;;5081265;28;20429;-55
2023/03/04 10:00:19;;;;;;;10.18;7.43;;;4.10;99.90;;;;;;5091331;28;20837;-54
2023/03/04 10:03:01;;;;;;;13.13;7.83;;;4.00;99.90;;;;;;5091320;28;20474;-55
2023/03/04 10:05:31;;;;;;;11.98;6.90;;;4.00;99.90;;;;;;5092308;28;20868;-54
2023/03/04 10:08:06;;;;;;;14.05;7.90;;;4.00;99.90;;;;;;5084946;28;20434;-55
2023/03/04 10:10:39;;;;;;;15.68;8.50;;;4.20;99.90;;;;;;5091733;28;20576;-56
2023/03/04 10:13:14;;;;;;;13.68;8.10;;;4.30;99.90;;;;;;5092851;28;20517;-54
2023/03/04 10:15:45;;;;;;;13.93;8.40;;;4.60;99.90;;;;;;5093390;28;20434;-53
2023/03/04 10:18:18;;;;;;;13.47;8.07;;;4.60;99.90;;;;;;5091443;28;20820;-54
2023/03/04 10:20:53;;;;;;;14.20;8.57;;;4.70;99.90;;;;;;5092456;28;20425;-54
2023/03/04 10:23:24;;;;;;;15.82;8.77;;;4.90;99.90;;;;;;5089805;28;20426;-53
2023/03/04 10:25:53;;;;;;;14.80;9.20;;;4.90;99.90;;;;;;5095214;28;20430;-50
2023/03/04 10:28:25;;;;;;;12.90;8.50;;;4.80;99.90;;;;;;5095443;28;20436;-53
2023/03/04 10:31:00;;;;;;;15.93;9.35;;;4.60;99.90;;;;;;5090560;28;20739;-59
2023/03/04 10:33:30;;;;;;;14.38;8.40;;;4.60;99.90;;;;;;5080405;28;20881;-58
2023/03/04 10:36:04;;;;;;;14.05;9.35;;;4.60;99.90;;;;;;5090794;28;20430;-58
2023/03/04 10:38:33;;;;;;;15.45;9.57;;;4.40;99.90;;;;;;5092651;28;20865;-59
2023/03/04 10:41:02;;;;;;;14.05;9.40;;;4.40;99.90;;;;;;5086464;28;20433;-59
2023/03/04 10:43:30;;;;;;;16.50;11.93;;;4.40;99.90;;;;;;5090528;28;20429;-59
2023/03/04 10:46:00;;;;;;;16.95;9.40;;;4.30;99.90;;;;;;5092011;28;20757;-59
2023/03/04 10:48:29;;;;;;;16.15;9.93;;;4.20;99.90;;;;;;5092363;28;20429;-58
2023/03/04 10:51:12;;;;;;;24.00;16.85;;;4.10;99.90;;;;;;5093246;28;20436;-58
2023/03/04 10:53:42;;;;;;;19.88;10.90;;;4.20;99.90;;;;;;5086387;28;20418;-59
2023/03/04 10:56:35;;;;;;;20.15;11.55;;;4.40;99.90;;;;;;5085812;28;20897;-58
2023/03/04 10:59:40;;;;;;;16.52;10.38;;;4.30;99.90;;;;;;5080101;28;20725;-58
2023/03/04 11:02:21;;;;;;;18.52;11.10;;;4.60;99.90;;;;;;5082837;28;20426;-60
2023/03/04 11:04:54;;;;;;;19.27;11.23;;;4.70;99.90;;;;;;5080889;28;20452;-59
2023/03/04 11:07:23;;;;;;;20.85;12.98;;;4.80;99.90;;;;;;5089949;28;20422;-59
2023/03/04 11:09:50;;;;;;;19.80;11.40;;;4.70;99.90;;;;;;5092992;28;20421;-59
2023/03/04 11:12:21;;;;;;;20.45;11.50;;;4.70;99.90;;;;;;5085554;28;20438;-59
2023/03/04 11:14:50;;;;;;;18.60;12.23;;;4.90;99.90;;;;;;5088606;28;20432;-59
2023/03/04 11:17:21;;;;;;;17.90;10.60;;;4.80;99.90;;;;;;5090745;28;20769;-59
2023/03/04 11:19:52;;;;;;;22.60;13.30;;;4.90;99.90;;;;;;5081602;28;20486;-59
2023/03/04 11:22:23;;;;;;;21.05;13.38;;;5.00;99.90;;;;;;5091403;28;20426;-59
2023/03/04 11:24:57;;;;;;;22.20;12.45;;;5.00;99.90;;;;;;5089247;28;20425;-59
2023/03/04 11:27:34;;;;;;;21.90;13.55;;;5.00;99.90;;;;;;5090863;28;20927;-58
2023/03/04 11:30:16;;;;;;;20.57;11.90;;;4.90;99.90;;;;;;5090816;28;20434;-57
2023/03/04 11:32:47;;;;;;;20.45;13.07;;;4.90;99.90;;;;;;5086000;28;20429;-59
2023/03/04 11:35:23;;;;;;;26.25;16.83;;;4.90;99.90;;;;;;5091868;28;20429;-56
2023/03/04 11:37:58;;;;;;;24.83;15.57;;;4.90;99.90;;;;;;5090613;28;20430;-58
2023/03/04 11:40:34;;;;;;;21.95;13.38;;;5.00;99.90;;;;;;5086719;28;20441;-57
2023/03/04 11:43:09;;;;;;;22.98;14.35;;;4.90;99.90;;;;;;5088596;28;20838;-60
2023/03/04 11:46:12;;;;;;;22.50;13.77;;;5.00;99.90;;;;;;5078435;28;20434;-59
2023/03/04 11:48:52;;;;;;;23.60;14.25;;;4.90;99.90;;;;;;5091114;28;20433;-57
2023/03/04 11:51:25;;;;;;;24.13;14.70;;;4.90;99.90;;;;;;5092127;28;20465;-58
2023/03/04 11:54:08;;;;;;;23.25;14.70;;;4.80;99.90;;;;;;5090395;28;20429;-59
2023/03/04 11:56:39;;;;;;;21.63;13.60;;;4.70;99.90;;;;;;5091223;28;20436;-58
2023/03/04 11:59:34;;;;;;;23.05;14.30;;;4.70;99.90;;;;;;5088772;28;20865;-57
2023/03/04 12:02:17;;;;;;;21.67;14.07;;;4.70;99.90;;;;;;5092745;28;20502;-58
2023/03/04 12:05:11;;;;;;;24.48;14.48;;;4.80;99.90;;;;;;5090567;28;20442;-57
2023/03/04 12:07:59;;;;;;;24.63;15.15;;;4.80;99.90;;;;;;5087868;28;20749;-57
2023/03/04 12:10:35;;;;;;;21.35;13.27;;;4.80;99.90;;;;;;5087524;28;20449;-54
2023/03/04 12:13:35;;;;;;;24.38;14.60;;;4.90;99.90;;;;;;5090817;28;20437;-56
2023/03/04 12:16:19;;;;;;;29.27;18.33;;;5.00;99.90;;;;;;5083309;28;20875;-50
2023/03/04 12:18:59;;;;;;;26.33;16.83;;;4.90;99.90;;;;;;5087256;28;20781;-51
2023/03/04 12:21:49;;;;;;;24.23;13.95;;;4.70;99.90;;;;;;5088282;28;20833;-48
2023/03/04 12:24:38;;;;;;;22.93;13.27;;;4.70;99.90;;;;;;5088831;28;20876;-52
2023/03/04 12:27:17;;;;;;;23.48;13.93;;;4.90;99.90;;;;;;5082440;28;20434;-50
2023/03/04 12:29:55;;;;;;;20.50;13.05;;;5.10;99.90;;;;;;5078036;28;20438;-51
2023/03/04 12:32:32;;;;;;;24.10;13.57;;;4.90;99.90;;;;;;5086356;28;20434;-52
2023/03/04 12:35:23;;;;;;;22.05;12.63;;;4.90;99.90;;;;;;5089047;28;20437;-53
2023/03/04 12:38:03;;;;;;;21.37;13.80;;;4.90;99.90;;;;;;5078814;28;20765;-52
2023/03/04 12:40:42;;;;;;;21.20;13.55;;;5.00;99.90;;;;;;5082840;28;20883;-51
2023/03/04 12:43:47;;;;;;;21.73;13.40;;;4.90;99.90;;;;;;5088623;28;20456;-50
2023/03/04 12:46:37;;;;;;;21.60;14.02;;;5.10;99.90;;;;;;5006989;28;20456;-55
2023/03/04 12:49:20;;;;;;;22.75;13.85;;;5.30;99.90;;;;;;5085933;28;20760;-53
2023/03/04 12:51:54;;;;;;;23.83;14.00;;;5.30;99.90;;;;;;5089384;28;20434;-55
2023/03/04 12:54:31;;;;;;;25.70;14.60;;;5.10;99.90;;;;;;5090088;28;20429;-50
2023/03/04 12:57:02;;;;;;;31.08;19.63;;;5.10;99.90;;;;;;5086329;28;20430;-55